Rachel Borchard — V2BW7 — position and weather

sailwx.info

Track history (hours):
 
Tides and Currents Weather Stations Pressure Air Temp Water Temp Dewpoint Dewpoint Depression Visibility Wind Speed Wind Dir Waves Ship Positions

Rachel Borchard

Last reported at 2018-May-20 16:11 UTC. Time now 2018-May-20 17:53 UTC.
Position N 39°35' E 013°54'.

Length 135 m; draft 7.4 m.

Type: Ship (hazmat cat C). MMSI: 304623000.

Date/timePositionNaut miles runAvg speedWind from/ knotsBaromVisibWave heightAir tempDewpointWater temp
2018-May-20 16:11N 39°35' E 013°54'317.2
2018-May-20 16:01N 39°37' E 013°51'24116.5
2018-May-20 01:26N 42°20' E 009°56'716.8
2018-May-20 01:00N 42°27' E 009°52'916.8
2018-May-20 00:29N 42°35' E 009°47'816.6
2018-May-20 00:00N 42°42' E 009°43'816.7
2018-May-19 23:30N 42°50' E 009°38'816.9
2018-May-19 23:01N 42°58' E 009°36'816.9
2018-May-19 22:31N 43°06' E 009°33'816.9
2018-May-19 22:00N 43°14' E 009°29'816.5
2018-May-19 21:31N 43°22' E 009°26'816.7
2018-May-19 21:01N 43°30' E 009°22'816.4
2018-May-19 20:30N 43°38' E 009°19'816.4
2018-May-19 20:00N 43°45' E 009°15'816.6
2018-May-19 19:31N 43°53' E 009°11'916.6
2018-May-19 18:59N 44°01' E 009°07'916.8
2018-May-19 18:29N 44°09' E 009°03'816.8
2018-May-19 18:00N 44°17' E 008°59'714.2
2018-May-19 17:30N 44°24' E 008°56'2 2.4
2018-May-19 16:49N 44°24' E 008°54'0 0.0
2018-May-19 16:30N 44°24' E 008°54'0 0.0
2018-May-19 16:01N 44°24' E 008°54'0 0.0
2018-May-19 15:30N 44°24' E 008°54'0 0.0
2018-May-19 15:00N 44°24' E 008°54'0 0.0
2018-May-19 14:30N 44°24' E 008°54'0 0.0
2018-May-19 14:00N 44°24' E 008°54'0 0.0
2018-May-19 13:30N 44°24' E 008°54'0 0.0
2018-May-19 13:00N 44°24' E 008°54'0 0.0
2018-May-19 12:30N 44°24' E 008°54'0 0.0
2018-May-19 12:00N 44°24' E 008°54'0 0.0
2018-May-19 11:30N 44°24' E 008°54'0 0.0
2018-May-19 11:00N 44°24' E 008°54'0 0.0
2018-May-19 10:30N 44°24' E 008°54'0 0.8
2018-May-19 10:00N 44°24' E 008°54'3 6.9
2018-May-19 09:30N 44°22' E 008°58'5 9.2
2018-May-19 09:01N 44°18' E 008°55'714.8
2018-May-19 08:31N 44°13' E 008°48'714.5
2018-May-19 08:00N 44°07' E 008°41'714.1
2018-May-19 07:30N 44°02' E 008°34'714.4
2018-May-19 07:00N 43°58' E 008°26'714.5
2018-May-19 06:30N 43°53' E 008°18'3713.9
2018-May-19 03:49N 43°31' E 007°37'413.8
2018-May-19 03:30N 43°28' E 007°32'713.9
2018-May-19 03:00N 43°24' E 007°24'713.8
2018-May-19 02:31N 43°21' E 007°16'1014.4
2018-May-19 01:49N 43°15' E 007°06'237 8.4
2018-May-17 21:27N 41°22' E 002°24'715.1
2018-May-17 21:00N 41°18' E 002°16'5 9.1
2018-May-17 20:30N 41°19' E 002°10'2 2.4
2018-May-17 19:45N 41°21' E 002°10'0 0.0
2018-May-17 19:18N 41°21' E 002°10'0 0.0
2018-May-17 18:39N 41°21' E 002°10'0 0.0
2018-May-17 18:30N 41°21' E 002°10'0 0.0
2018-May-17 17:59N 41°21' E 002°10'0 0.0
2018-May-17 17:20N 41°21' E 002°10'0 0.0
2018-May-17 17:00N 41°21' E 002°10'0 0.0
2018-May-17 16:30N 41°21' E 002°10'0 0.0
2018-May-17 15:59N 41°21' E 002°10'0 0.0
2018-May-17 15:30N 41°21' E 002°10'0 0.0
2018-May-17 14:57N 41°21' E 002°10'0 0.0
2018-May-17 14:30N 41°21' E 002°10'0 0.0
2018-May-17 13:59N 41°21' E 002°10'0 0.0
2018-May-17 13:22N 41°21' E 002°10'0 0.0
2018-May-17 13:00N 41°21' E 002°10'0 0.0
2018-May-17 12:14N 41°21' E 002°10'0 0.0
2018-May-17 08:42N 41°21' E 002°10'0 0.0
2018-May-17 08:30N 41°21' E 002°10'0 0.3
2018-May-17 08:01N 41°21' E 002°10'3 6.3
2018-May-17 07:30N 41°18' E 002°11'2 4.8
2018-May-17 07:00N 41°17' E 002°14'3 5.3
2018-May-17 06:30N 41°16' E 002°17'7 1.1
2018-May-17 00:20N 41°17' E 002°27'51714.7
2018-May-15 13:06N 40°34' E 013°49'215.7
2018-May-15 13:00N 40°34' E 013°51'815.6
2018-May-15 12:30N 40°32' E 014°01'1615.7
2018-May-15 11:28N 40°31' E 014°22'16 0.6
2018-May-14 10:07N 40°34' E 014°43'133 6.5
2018-May-13 13:36N 38°28' E 015°38'316.0
2018-May-13 13:26N 38°26' E 015°39'716.0
2018-May-13 13:00N 38°19' E 015°42'713.3
2018-May-13 12:29N 38°14' E 015°37'1213.7
2018-May-13 11:38N 38°02' E 015°35'915.6
2018-May-13 11:05N 37°54' E 015°40'216.0
2018-May-13 10:57N 37°53' E 015°42'  
Track history (hours):
 
Tides and Currents Weather Stations Pressure Air Temp Water Temp Dewpoint Dewpoint Depression Visibility Wind Speed Wind Dir Waves Ship Positions

Rachel Borchard

Last reported at 2018-May-20 16:11 UTC. Time now 2018-May-20 17:53 UTC.
Position N 39°35' E 013°54'.

Length 135 m; draft 7.4 m.

Type: Ship (hazmat cat C). MMSI: 304623000.

Date/timePositionNaut miles runAvg speedWind from/ knotsBaromVisibWave heightAir tempDewpointWater temp
2018-May-20 16:11N 39°35' E 013°54'317.2
2018-May-20 16:01N 39°37' E 013°51'24116.5
2018-May-20 01:26N 42°20' E 009°56'716.8
2018-May-20 01:00N 42°27' E 009°52'916.8
2018-May-20 00:29N 42°35' E 009°47'816.6
2018-May-20 00:00N 42°42' E 009°43'816.7
2018-May-19 23:30N 42°50' E 009°38'816.9
2018-May-19 23:01N 42°58' E 009°36'816.9
2018-May-19 22:31N 43°06' E 009°33'816.9
2018-May-19 22:00N 43°14' E 009°29'816.5
2018-May-19 21:31N 43°22' E 009°26'816.7
2018-May-19 21:01N 43°30' E 009°22'816.4
2018-May-19 20:30N 43°38' E 009°19'816.4
2018-May-19 20:00N 43°45' E 009°15'816.6
2018-May-19 19:31N 43°53' E 009°11'916.6
2018-May-19 18:59N 44°01' E 009°07'916.8
2018-May-19 18:29N 44°09' E 009°03'816.8
2018-May-19 18:00N 44°17' E 008°59'714.2
2018-May-19 17:30N 44°24' E 008°56'2 2.4
2018-May-19 16:49N 44°24' E 008°54'0 0.0
2018-May-19 16:30N 44°24' E 008°54'0 0.0
2018-May-19 16:01N 44°24' E 008°54'0 0.0
2018-May-19 15:30N 44°24' E 008°54'0 0.0
2018-May-19 15:00N 44°24' E 008°54'0 0.0
2018-May-19 14:30N 44°24' E 008°54'0 0.0
2018-May-19 14:00N 44°24' E 008°54'0 0.0
2018-May-19 13:30N 44°24' E 008°54'0 0.0
2018-May-19 13:00N 44°24' E 008°54'0 0.0
2018-May-19 12:30N 44°24' E 008°54'0 0.0
2018-May-19 12:00N 44°24' E 008°54'0 0.0
2018-May-19 11:30N 44°24' E 008°54'0 0.0
2018-May-19 11:00N 44°24' E 008°54'0 0.0
2018-May-19 10:30N 44°24' E 008°54'0 0.8
2018-May-19 10:00N 44°24' E 008°54'3 6.9
2018-May-19 09:30N 44°22' E 008°58'5 9.2
2018-May-19 09:01N 44°18' E 008°55'714.8
2018-May-19 08:31N 44°13' E 008°48'714.5
2018-May-19 08:00N 44°07' E 008°41'714.1
2018-May-19 07:30N 44°02' E 008°34'714.4
2018-May-19 07:00N 43°58' E 008°26'714.5
2018-May-19 06:30N 43°53' E 008°18'3713.9
2018-May-19 03:49N 43°31' E 007°37'413.8
2018-May-19 03:30N 43°28' E 007°32'713.9
2018-May-19 03:00N 43°24' E 007°24'713.8
2018-May-19 02:31N 43°21' E 007°16'1014.4
2018-May-19 01:49N 43°15' E 007°06'237 8.4
2018-May-17 21:27N 41°22' E 002°24'715.1
2018-May-17 21:00N 41°18' E 002°16'5 9.1
2018-May-17 20:30N 41°19' E 002°10'2 2.4
2018-May-17 19:45N 41°21' E 002°10'0 0.0
2018-May-17 19:18N 41°21' E 002°10'0 0.0
2018-May-17 18:39N 41°21' E 002°10'0 0.0
2018-May-17 18:30N 41°21' E 002°10'0 0.0
2018-May-17 17:59N 41°21' E 002°10'0 0.0
2018-May-17 17:20N 41°21' E 002°10'0 0.0
2018-May-17 17:00N 41°21' E 002°10'0 0.0
2018-May-17 16:30N 41°21' E 002°10'0 0.0
2018-May-17 15:59N 41°21' E 002°10'0 0.0
2018-May-17 15:30N 41°21' E 002°10'0 0.0
2018-May-17 14:57N 41°21' E 002°10'0 0.0
2018-May-17 14:30N 41°21' E 002°10'0 0.0
2018-May-17 13:59N 41°21' E 002°10'0 0.0
2018-May-17 13:22N 41°21' E 002°10'0 0.0
2018-May-17 13:00N 41°21' E 002°10'0 0.0
2018-May-17 12:14N 41°21' E 002°10'0 0.0
2018-May-17 08:42N 41°21' E 002°10'0 0.0
2018-May-17 08:30N 41°21' E 002°10'0 0.3
2018-May-17 08:01N 41°21' E 002°10'3 6.3
2018-May-17 07:30N 41°18' E 002°11'2 4.8
2018-May-17 07:00N 41°17' E 002°14'3 5.3
2018-May-17 06:30N 41°16' E 002°17'7 1.1
2018-May-17 00:20N 41°17' E 002°27'51714.7
2018-May-15 13:06N 40°34' E 013°49'215.7
2018-May-15 13:00N 40°34' E 013°51'815.6
2018-May-15 12:30N 40°32' E 014°01'1615.7
2018-May-15 11:28N 40°31' E 014°22'16 0.6
2018-May-14 10:07N 40°34' E 014°43'133 6.5
2018-May-13 13:36N 38°28' E 015°38'316.0
2018-May-13 13:26N 38°26' E 015°39'716.0
2018-May-13 13:00N 38°19' E 015°42'713.3
2018-May-13 12:29N 38°14' E 015°37'1213.7
2018-May-13 11:38N 38°02' E 015°35'915.6
2018-May-13 11:05N 37°54' E 015°40'216.0
2018-May-13 10:57N 37°53' E 015°42'  

Dump ship's entire track history